Time;durP1;ratioP1;P1;durP2;ratioP2;P2;SDS_P1;SDS_P2;PMS_P1;PMS_P2;Temp;Humidity;BMP_temperature;BMP_pressure;BME280_temperature;BME280_humidity;BME280_pressure;Samples;Min_cycle;Max_cycle;Signal;HPM_P1;HPM_P2
2021/03/23 00:01:27;;;;;;;0.20;0.20;;;;;;;;;;5064569;28;20347;-75
2021/03/23 00:03:52;;;;;;;0.20;0.20;;;;;;;;;;5064666;28;20229;-75
2021/03/23 00:06:20;;;;;;;0.20;0.20;;;;;;;;;;5064778;28;20214;-75
2021/03/23 00:08:47;;;;;;;0.20;0.20;;;;;;;;;;5064498;28;20230;-73
2021/03/23 00:11:14;;;;;;;0.20;0.20;;;;;;;;;;5058561;28;20223;-76
2021/03/23 00:13:40;;;;;;;0.13;0.13;;;;;;;;;;5057836;28;20206;-75
2021/03/23 00:16:06;;;;;;;0.20;0.20;;;;;;;;;;5064333;28;20413;-74
2021/03/23 00:18:33;;;;;;;0.20;0.20;;;;;;;;;;5059593;28;20401;-76
2021/03/23 00:20:58;;;;;;;0.57;0.57;;;;;;;;;;5052516;28;20524;-76
2021/03/23 00:23:25;;;;;;;0.37;0.37;;;;;;;;;;5064210;28;20207;-76
2021/03/23 00:25:51;;;;;;;0.10;0.10;;;;;;;;;;5051359;28;20216;-76
2021/03/23 00:28:17;;;;;;;0.20;0.20;;;;;;;;;;5052121;28;20296;-76
2021/03/23 00:30:43;;;;;;;0.20;0.20;;;;;;;;;;5051896;28;20297;-75
2021/03/23 00:33:08;;;;;;;0.20;0.20;;;;;;;;;;5051466;28;20215;-76
2021/03/23 00:35:34;;;;;;;0.20;0.20;;;;;;;;;;5061822;28;20437;-76
2021/03/23 00:38:02;;;;;;;0.20;0.20;;;;;;;;;;5044560;28;20230;-76
2021/03/23 00:40:30;;;;;;;0.20;0.20;;;;;;;;;;5053317;28;20206;-75
2021/03/23 00:42:56;;;;;;;0.30;0.30;;;;;;;;;;5056924;28;20390;-73
2021/03/23 00:45:23;;;;;;;0.20;0.20;;;;;;;;;;5063898;28;20272;-75
2021/03/23 00:47:49;;;;;;;0.20;0.20;;;;;;;;;;5063933;28;20206;-76
2021/03/23 00:50:15;;;;;;;0.20;0.20;;;;;;;;;;5060431;28;20233;-76
2021/03/23 00:52:41;;;;;;;0.20;0.20;;;;;;;;;;5061612;28;20497;-76
2021/03/23 00:55:08;;;;;;;0.20;0.20;;;;;;;;;;5056568;28;20502;-74
2021/03/23 00:57:35;;;;;;;0.20;0.20;;;;;;;;;;5058743;28;20220;-76
2021/03/23 01:00:00;;;;;;;0.20;0.20;;;;;;;;;;5056581;28;20343;-76
2021/03/23 01:02:27;;;;;;;0.10;0.10;;;;;;;;;;5058214;28;20221;-76
2021/03/23 01:04:53;;;;;;;0.20;0.20;;;;;;;;;;5063161;28;20237;-76
2021/03/23 01:07:19;;;;;;;0.20;0.20;;;;;;;;;;5053563;28;20400;-76
2021/03/23 01:09:44;;;;;;;0.20;0.20;;;;;;;;;;5063396;28;20203;-76
2021/03/23 01:12:10;;;;;;;0.20;0.20;;;;;;;;;;5055524;28;20234;-75
2021/03/23 01:14:37;;;;;;;0.30;0.30;;;;;;;;;;5047996;28;20207;-76
2021/03/23 01:17:03;;;;;;;0.20;0.20;;;;;;;;;;5050701;28;20210;-76
2021/03/23 01:19:29;;;;;;;0.30;0.30;;;;;;;;;;5062002;28;20202;-75
2021/03/23 01:21:55;;;;;;;0.40;0.40;;;;;;;;;;5063320;28;20320;-76
2021/03/23 01:24:21;;;;;;;2.20;2.13;;;;;;;;;;5055957;28;20208;-76
2021/03/23 01:26:46;;;;;;;0.20;0.20;;;;;;;;;;5058512;28;20596;-75
2021/03/23 01:29:12;;;;;;;0.50;0.50;;;;;;;;;;5045887;28;20206;-76
2021/03/23 01:31:39;;;;;;;0.20;0.20;;;;;;;;;;5058092;28;20460;-75
2021/03/23 01:34:04;;;;;;;0.10;0.10;;;;;;;;;;5049098;28;20216;-77
2021/03/23 01:36:30;;;;;;;0.20;0.20;;;;;;;;;;5049179;28;20211;-75
2021/03/23 01:38:56;;;;;;;0.53;0.53;;;;;;;;;;5053335;28;20476;-75
2021/03/23 01:41:22;;;;;;;0.20;0.20;;;;;;;;;;5058108;28;20209;-76
2021/03/23 01:43:47;;;;;;;0.20;0.20;;;;;;;;;;5049405;28;20211;-75
2021/03/23 01:46:33;;;;;;;0.20;0.20;;;;;;;;;;5052970;28;20256;-76
2021/03/23 01:49:00;;;;;;;0.20;0.20;;;;;;;;;;5063409;28;20211;-76
2021/03/23 01:51:26;;;;;;;0.10;0.10;;;;;;;;;;5060254;28;20240;-76
2021/03/23 01:53:55;;;;;;;0.20;0.20;;;;;;;;;;5061134;28;20260;-76
2021/03/23 01:56:21;;;;;;;0.10;0.10;;;;;;;;;;5059760;28;20215;-75
2021/03/23 01:58:49;;;;;;;0.17;0.17;;;;;;;;;;5058376;28;20206;-76
2021/03/23 02:01:15;;;;;;;0.20;0.20;;;;;;;;;;5051269;28;20246;-76
2021/03/23 02:03:41;;;;;;;0.20;0.20;;;;;;;;;;5050479;28;20216;-76
2021/03/23 02:06:21;;;;;;;0.20;0.20;;;;;;;;;;5062761;28;20230;-76
2021/03/23 02:08:48;;;;;;;0.17;0.17;;;;;;;;;;5062808;28;20206;-76
2021/03/23 02:11:14;;;;;;;0.20;0.20;;;;;;;;;;5062707;28;20230;-76
2021/03/23 02:13:39;;;;;;;0.20;0.20;;;;;;;;;;5062769;28;20201;-76
2021/03/23 02:16:05;;;;;;;0.20;0.20;;;;;;;;;;5056814;28;20217;-76
2021/03/23 02:18:31;;;;;;;0.20;0.20;;;;;;;;;;5060683;28;20367;-76
2021/03/23 02:20:59;;;;;;;0.20;0.20;;;;;;;;;;5066475;28;20226;-76
2021/03/23 02:23:25;;;;;;;0.20;0.20;;;;;;;;;;5066739;28;20229;-76
2021/03/23 02:25:51;;;;;;;0.20;0.20;;;;;;;;;;5066744;28;20216;-77
2021/03/23 02:28:17;;;;;;;0.13;0.13;;;;;;;;;;5066728;28;20219;-76
2021/03/23 02:30:44;;;;;;;0.30;0.30;;;;;;;;;;5063391;28;20232;-76
2021/03/23 02:33:10;;;;;;;0.20;0.20;;;;;;;;;;5066754;28;20210;-75
2021/03/23 02:35:36;;;;;;;0.20;0.20;;;;;;;;;;5066229;28;20235;-77
2021/03/23 02:38:04;;;;;;;0.53;0.53;;;;;;;;;;5066462;28;20566;-75
2021/03/23 02:40:31;;;;;;;0.43;0.43;;;;;;;;;;5052989;28;20230;-75
2021/03/23 02:42:57;;;;;;;0.20;0.20;;;;;;;;;;5065597;28;20205;-75
2021/03/23 02:45:23;;;;;;;0.10;0.10;;;;;;;;;;5066604;28;20208;-75
2021/03/23 02:47:49;;;;;;;0.20;0.20;;;;;;;;;;5065486;28;20405;-75
2021/03/23 02:50:15;;;;;;;0.17;0.17;;;;;;;;;;5046366;28;20234;-76
2021/03/23 02:52:41;;;;;;;0.20;0.20;;;;;;;;;;5061094;28;20273;-75
2021/03/23 02:55:09;;;;;;;0.20;0.20;;;;;;;;;;5066082;28;20245;-74
2021/03/23 02:57:35;;;;;;;0.20;0.20;;;;;;;;;;5064065;28;20422;-76
2021/03/23 03:00:00;;;;;;;0.10;0.10;;;;;;;;;;5065318;28;20210;-75
2021/03/23 03:02:26;;;;;;;0.20;0.20;;;;;;;;;;5065340;28;20419;-76
2021/03/23 03:04:52;;;;;;;0.17;0.17;;;;;;;;;;5056475;28;20231;-75
2021/03/23 03:07:18;;;;;;;0.20;0.20;;;;;;;;;;5065839;28;20250;-76
2021/03/23 03:09:44;;;;;;;0.20;0.20;;;;;;;;;;5064316;28;20206;-75
2021/03/23 03:12:11;;;;;;;0.20;0.20;;;;;;;;;;5060511;28;20429;-76
2021/03/23 03:14:36;;;;;;;0.20;0.20;;;;;;;;;;5065696;28;20205;-76
2021/03/23 03:17:02;;;;;;;0.10;0.10;;;;;;;;;;5065474;28;20231;-76
2021/03/23 03:19:28;;;;;;;0.20;0.20;;;;;;;;;;5057555;28;20225;-75
2021/03/23 03:21:54;;;;;;;0.40;0.40;;;;;;;;;;5048485;28;20290;-76
2021/03/23 03:24:20;;;;;;;0.20;0.20;;;;;;;;;;5057080;28;20232;-76
2021/03/23 03:26:45;;;;;;;0.20;0.20;;;;;;;;;;5060556;28;20210;-75
2021/03/23 03:29:12;;;;;;;0.20;0.20;;;;;;;;;;5065481;28;20204;-76
2021/03/23 03:31:38;;;;;;;0.20;0.20;;;;;;;;;;5064811;28;20515;-77
2021/03/23 03:34:04;;;;;;;0.20;0.20;;;;;;;;;;5065545;28;20209;-75
2021/03/23 03:36:30;;;;;;;0.20;0.20;;;;;;;;;;5065308;28;20205;-76
2021/03/23 03:38:56;;;;;;;0.20;0.20;;;;;;;;;;5065296;28;20201;-76
2021/03/23 03:41:23;;;;;;;0.20;0.20;;;;;;;;;;5056367;28;20224;-75
2021/03/23 03:43:48;;;;;;;0.20;0.20;;;;;;;;;;5060378;28;20383;-76
2021/03/23 03:46:16;;;;;;;0.10;0.10;;;;;;;;;;5065359;28;20213;-76
2021/03/23 03:48:41;;;;;;;0.20;0.20;;;;;;;;;;5065097;28;20219;-76
2021/03/23 03:51:08;;;;;;;0.20;0.20;;;;;;;;;;5065224;28;20230;-76
2021/03/23 03:53:33;;;;;;;0.20;0.20;;;;;;;;;;5060542;28;20374;-75
2021/03/23 03:56:00;;;;;;;0.10;0.10;;;;;;;;;;5055263;28;20200;-76
2021/03/23 03:58:25;;;;;;;1.23;0.63;;;;;;;;;;5064852;28;20204;-76
2021/03/23 04:00:51;;;;;;;0.20;0.20;;;;;;;;;;5064789;28;20240;-76
2021/03/23 04:03:19;;;;;;;0.20;0.20;;;;;;;;;;5065523;28;20242;-77
2021/03/23 04:05:45;;;;;;;0.20;0.20;;;;;;;;;;5064864;28;20535;-76
2021/03/23 04:08:12;;;;;;;0.20;0.20;;;;;;;;;;5054339;28;20480;-75
2021/03/23 04:10:39;;;;;;;0.20;0.20;;;;;;;;;;5061816;28;20259;-76
2021/03/23 04:13:05;;;;;;;0.20;0.20;;;;;;;;;;5064879;28;20211;-74
2021/03/23 04:15:32;;;;;;;0.20;0.20;;;;;;;;;;5064695;28;20245;-76
2021/03/23 04:17:58;;;;;;;0.20;0.20;;;;;;;;;;5065232;28;20216;-76
2021/03/23 04:20:25;;;;;;;0.10;0.10;;;;;;;;;;5064285;28;20209;-74
2021/03/23 04:22:51;;;;;;;0.20;0.20;;;;;;;;;;5055816;28;20214;-75
2021/03/23 04:25:18;;;;;;;0.67;0.67;;;;;;;;;;5061108;28;20429;-76
2021/03/23 04:27:44;;;;;;;0.10;0.10;;;;;;;;;;5064069;28;20272;-76
2021/03/23 04:30:10;;;;;;;0.20;0.20;;;;;;;;;;5063563;28;20229;-78
2021/03/23 04:32:37;;;;;;;0.20;0.20;;;;;;;;;;5064289;28;20243;-74
2021/03/23 04:35:04;;;;;;;0.20;0.20;;;;;;;;;;5064011;28;20222;-76
2021/03/23 04:37:32;;;;;;;0.17;0.17;;;;;;;;;;5063907;28;20509;-76
2021/03/23 04:39:58;;;;;;;0.20;0.20;;;;;;;;;;5060232;28;20283;-77
2021/03/23 04:42:24;;;;;;;0.20;0.20;;;;;;;;;;5064010;28;20197;-76
2021/03/23 04:44:49;;;;;;;0.20;0.20;;;;;;;;;;5064158;28;20206;-76
2021/03/23 04:47:15;;;;;;;0.10;0.10;;;;;;;;;;5064228;28;20497;-76
2021/03/23 04:49:41;;;;;;;0.10;0.10;;;;;;;;;;5064203;28;20202;-76
2021/03/23 04:52:08;;;;;;;0.20;0.20;;;;;;;;;;5064203;28;20232;-76
2021/03/23 04:54:34;;;;;;;0.20;0.20;;;;;;;;;;5060673;28;20338;-76
2021/03/23 04:57:00;;;;;;;0.20;0.20;;;;;;;;;;5063814;28;20214;-76
2021/03/23 04:59:26;;;;;;;0.20;0.20;;;;;;;;;;5063935;28;20496;-76
2021/03/23 05:01:52;;;;;;;0.67;0.67;;;;;;;;;;5063354;28;20220;-75
2021/03/23 05:04:19;;;;;;;0.20;0.20;;;;;;;;;;5063633;28;20225;-75
2021/03/23 05:06:45;;;;;;;0.20;0.20;;;;;;;;;;5063561;28;20202;-76
2021/03/23 05:09:11;;;;;;;0.20;0.20;;;;;;;;;;5061512;28;20267;-76
2021/03/23 05:11:38;;;;;;;0.20;0.20;;;;;;;;;;5061326;28;20228;-75
2021/03/23 05:14:06;;;;;;;0.20;0.20;;;;;;;;;;5059407;28;20210;-76
2021/03/23 05:16:32;;;;;;;0.20;0.20;;;;;;;;;;5063176;28;20206;-75
2021/03/23 05:18:58;;;;;;;0.13;0.13;;;;;;;;;;5063760;28;20509;-76
2021/03/23 05:21:23;;;;;;;0.10;0.10;;;;;;;;;;5063259;28;20205;-77
2021/03/23 05:23:50;;;;;;;0.20;0.20;;;;;;;;;;5052160;28;20210;-75
2021/03/23 05:26:15;;;;;;;0.20;0.20;;;;;;;;;;5053154;28;20204;-76
2021/03/23 05:28:46;;;;;;;0.10;0.10;;;;;;;;;;5059541;28;20209;-76
2021/03/23 05:31:12;;;;;;;0.20;0.20;;;;;;;;;;5063243;28;20263;-76
2021/03/23 05:33:38;;;;;;;0.10;0.10;;;;;;;;;;5063450;28;20207;-76
2021/03/23 05:36:04;;;;;;;0.10;0.10;;;;;;;;;;5056470;28;20278;-77
2021/03/23 05:38:30;;;;;;;0.20;0.20;;;;;;;;;;5061024;28;20208;-76
2021/03/23 05:40:57;;;;;;;0.10;0.10;;;;;;;;;;5063851;28;20508;-78
2021/03/23 05:43:32;;;;;;;0.20;0.20;;;;;;;;;;5063577;28;20303;-75
2021/03/23 05:46:00;;;;;;;1.50;1.50;;;;;;;;;;5056083;28;20196;-76
2021/03/23 05:48:27;;;;;;;0.17;0.17;;;;;;;;;;5063390;28;20386;-76
2021/03/23 05:50:58;;;;;;;0.20;0.20;;;;;;;;;;5058881;28;20222;-76
2021/03/23 05:53:28;;;;;;;0.20;0.20;;;;;;;;;;5056699;28;20193;-76
2021/03/23 05:55:54;;;;;;;0.10;0.10;;;;;;;;;;5065588;28;20204;-77
2021/03/23 05:58:23;;;;;;;0.20;0.20;;;;;;;;;;5066999;28;20206;-76
2021/03/23 06:00:54;;;;;;;0.20;0.20;;;;;;;;;;5063542;28;20254;-77
2021/03/23 06:03:23;;;;;;;0.20;0.20;;;;;;;;;;5067186;28;20217;-76
2021/03/23 06:05:53;;;;;;;0.10;0.10;;;;;;;;;;5063484;28;20209;-76
2021/03/23 06:08:24;;;;;;;0.20;0.20;;;;;;;;;;5067252;28;20196;-76
2021/03/23 06:10:51;;;;;;;0.20;0.20;;;;;;;;;;5057434;28;20223;-76
2021/03/23 06:13:23;;;;;;;0.20;0.20;;;;;;;;;;5062554;28;20224;-76
2021/03/23 06:15:57;;;;;;;0.20;0.20;;;;;;;;;;5062599;28;20221;-76
2021/03/23 06:18:28;;;;;;;0.20;0.20;;;;;;;;;;5066754;28;20235;-76
2021/03/23 06:20:57;;;;;;;0.10;0.10;;;;;;;;;;5066398;28;20197;-76
2021/03/23 06:23:38;;;;;;;0.20;0.20;;;;;;;;;;5066857;28;20206;-76
2021/03/23 06:26:05;;;;;;;0.20;0.20;;;;;;;;;;5055752;28;20209;-76
2021/03/23 06:28:38;;;;;;;0.20;0.20;;;;;;;;;;5066414;28;20209;-76
2021/03/23 06:31:06;;;;;;;0.10;0.10;;;;;;;;;;5066665;28;20287;-78
2021/03/23 06:33:32;;;;;;;0.20;0.20;;;;;;;;;;5066589;28;20275;-76
2021/03/23 06:36:00;;;;;;;0.20;0.20;;;;;;;;;;5066513;28;20225;-76
2021/03/23 06:38:27;;;;;;;0.20;0.20;;;;;;;;;;5066477;28;20205;-76
2021/03/23 06:41:14;;;;;;;0.10;0.10;;;;;;;;;;5061241;28;20242;-76
2021/03/23 06:43:41;;;;;;;0.20;0.20;;;;;;;;;;5060196;28;20202;-76
2021/03/23 06:46:18;;;;;;;0.20;0.20;;;;;;;;;;5059813;28;20287;-75
2021/03/23 06:49:00;;;;;;;0.20;0.20;;;;;;;;;;5061060;28;20195;-77
2021/03/23 06:51:26;;;;;;;0.20;0.20;;;;;;;;;;5054276;28;20214;-76
2021/03/23 06:53:51;;;;;;;0.30;0.30;;;;;;;;;;5065997;28;20205;-76
2021/03/23 06:56:19;;;;;;;0.20;0.20;;;;;;;;;;5065808;28;20248;-77
2021/03/23 06:58:45;;;;;;;0.20;0.20;;;;;;;;;;5066246;28;20203;-76
2021/03/23 07:01:19;;;;;;;0.20;0.20;;;;;;;;;;5059398;28;20213;-75
2021/03/23 07:03:46;;;;;;;0.20;0.20;;;;;;;;;;5046109;28;20224;-77
2021/03/23 07:06:26;;;;;;;0.30;0.30;;;;;;;;;;5059611;28;20381;-76
2021/03/23 07:09:05;;;;;;;0.20;0.20;;;;;;;;;;5054691;28;20220;-74
2021/03/23 07:11:48;;;;;;;0.20;0.20;;;;;;;;;;5054462;28;20221;-76
2021/03/23 07:14:20;;;;;;;0.20;0.20;;;;;;;;;;5063917;28;20200;-78
2021/03/23 07:16:48;;;;;;;0.10;0.10;;;;;;;;;;5057278;28;20203;-75
2021/03/23 07:19:15;;;;;;;0.20;0.20;;;;;;;;;;5055353;28;20260;-77
2021/03/23 07:21:44;;;;;;;0.20;0.20;;;;;;;;;;5060268;28;20519;-80
2021/03/23 07:24:11;;;;;;;0.20;0.20;;;;;;;;;;5055401;28;20218;-74
2021/03/23 07:26:39;;;;;;;0.20;0.20;;;;;;;;;;5059152;28;20206;-75
2021/03/23 07:29:22;;;;;;;0.10;0.10;;;;;;;;;;5064559;28;20207;-74
2021/03/23 07:31:53;;;;;;;0.20;0.20;;;;;;;;;;5063239;28;20295;-72
2021/03/23 07:34:22;;;;;;;0.20;0.20;;;;;;;;;;5063391;28;20204;-75
2021/03/23 07:36:50;;;;;;;0.10;0.10;;;;;;;;;;5061872;28;20237;-74
2021/03/23 07:39:18;;;;;;;0.20;0.20;;;;;;;;;;5062100;28;20202;-75
2021/03/23 07:41:46;;;;;;;0.20;0.20;;;;;;;;;;5064076;28;20220;-75
2021/03/23 07:44:17;;;;;;;0.30;0.30;;;;;;;;;;5061850;28;20217;-76
2021/03/23 07:46:44;;;;;;;0.10;0.10;;;;;;;;;;5062011;28;20209;-76
2021/03/23 07:49:20;;;;;;;0.20;0.20;;;;;;;;;;5064638;28;20209;-75
2021/03/23 07:51:50;;;;;;;2.23;1.17;;;;;;;;;;5057061;28;20248;-75
2021/03/23 07:54:21;;;;;;;0.20;0.20;;;;;;;;;;5063204;28;20202;-74
2021/03/23 07:56:56;;;;;;;0.20;0.20;;;;;;;;;;5057459;28;20333;-73
2021/03/23 07:59:27;;;;;;;0.17;0.17;;;;;;;;;;5053283;28;20205;-72
2021/03/23 08:01:53;;;;;;;0.20;0.20;;;;;;;;;;5054064;28;20494;-73
2021/03/23 08:04:22;;;;;;;0.20;0.20;;;;;;;;;;5057619;28;20264;-74
2021/03/23 08:07:05;;;;;;;0.10;0.10;;;;;;;;;;5064489;28;20206;-74
2021/03/23 08:09:42;;;;;;;0.20;0.20;;;;;;;;;;5058836;28;20504;-70
2021/03/23 08:12:26;;;;;;;0.20;0.20;;;;;;;;;;5064761;28;20213;-69
2021/03/23 08:15:02;;;;;;;0.20;0.20;;;;;;;;;;5061558;28;20206;-69
2021/03/23 08:17:43;;;;;;;0.17;0.17;;;;;;;;;;5060535;28;20199;-69
2021/03/23 08:20:23;;;;;;;0.10;0.10;;;;;;;;;;5060228;28;20220;-69
2021/03/23 08:23:01;;;;;;;0.20;0.20;;;;;;;;;;5052760;28;20209;-69
2021/03/23 08:25:35;;;;;;;0.20;0.20;;;;;;;;;;5058303;28;20198;-69
2021/03/23 08:28:11;;;;;;;0.10;0.10;;;;;;;;;;5056782;28;20239;-69
2021/03/23 08:30:45;;;;;;;0.17;0.17;;;;;;;;;;5058459;28;20533;-70
2021/03/23 08:33:24;;;;;;;0.20;0.20;;;;;;;;;;5059115;28;20437;-71
2021/03/23 08:36:09;;;;;;;0.20;0.20;;;;;;;;;;5063123;28;20214;-71
2021/03/23 08:38:42;;;;;;;0.20;0.20;;;;;;;;;;5059842;28;20204;-70
2021/03/23 08:41:11;;;;;;;0.20;0.20;;;;;;;;;;5061406;28;20266;-72
2021/03/23 08:43:38;;;;;;;0.10;0.10;;;;;;;;;;5062381;28;20203;-71
2021/03/23 08:46:05;;;;;;;0.20;0.20;;;;;;;;;;5060472;28;20235;-71
2021/03/23 08:48:36;;;;;;;0.20;0.20;;;;;;;;;;5057176;28;20206;-70
2021/03/23 08:51:05;;;;;;;0.20;0.20;;;;;;;;;;5062121;28;20245;-70
2021/03/23 08:53:49;;;;;;;0.20;0.20;;;;;;;;;;5063532;28;20404;-70
2021/03/23 08:56:36;;;;;;;0.10;0.10;;;;;;;;;;5059719;28;20240;-71
2021/03/23 08:59:03;;;;;;;0.10;0.10;;;;;;;;;;5052665;28;20268;-70
2021/03/23 09:01:36;;;;;;;0.17;0.17;;;;;;;;;;5060756;28;20261;-72
2021/03/23 09:04:20;;;;;;;0.10;0.10;;;;;;;;;;5062566;28;20235;-71
2021/03/23 09:06:47;;;;;;;0.20;0.20;;;;;;;;;;5062301;28;20205;-72
2021/03/23 09:09:21;;;;;;;0.20;0.20;;;;;;;;;;5063594;28;20421;-71
2021/03/23 09:12:02;;;;;;;0.20;0.20;;;;;;;;;;5063327;28;20222;-73
2021/03/23 09:14:31;;;;;;;0.13;0.13;;;;;;;;;;5049010;28;20202;-70
2021/03/23 09:17:18;;;;;;;0.20;0.20;;;;;;;;;;5059912;28;20215;-71
2021/03/23 09:19:49;;;;;;;0.20;0.20;;;;;;;;;;5053076;28;20262;-72
2021/03/23 09:22:32;;;;;;;0.10;0.10;;;;;;;;;;5056173;28;20459;-74
2021/03/23 09:25:29;;;;;;;0.20;0.20;;;;;;;;;;5050855;28;20210;-72
2021/03/23 09:27:57;;;;;;;0.10;0.10;;;;;;;;;;5052945;28;20210;-72
2021/03/23 09:30:49;;;;;;;0.20;0.20;;;;;;;;;;5059755;28;20514;-74
2021/03/23 09:33:27;;;;;;;0.20;0.20;;;;;;;;;;5026210;28;20207;-73
2021/03/23 09:36:13;;;;;;;0.10;0.10;;;;;;;;;;5057471;28;20241;-73
2021/03/23 09:38:40;;;;;;;0.20;0.20;;;;;;;;;;5059836;28;20201;-74
2021/03/23 09:41:07;;;;;;;0.20;0.20;;;;;;;;;;5055469;28;20198;-73
2021/03/23 09:43:36;;;;;;;0.10;0.10;;;;;;;;;;5052542;28;20338;-73
2021/03/23 09:46:10;;;;;;;0.20;0.20;;;;;;;;;;5048180;28;20223;-72
2021/03/23 09:48:48;;;;;;;0.30;0.30;;;;;;;;;;5050388;28;20199;-72
2021/03/23 09:51:29;;;;;;;0.20;0.20;;;;;;;;;;5049537;28;20254;-73
2021/03/23 09:53:55;;;;;;;0.20;0.20;;;;;;;;;;5045643;28;20210;-73
2021/03/23 09:56:25;;;;;;;0.10;0.10;;;;;;;;;;5053531;28;20274;-72
2021/03/23 09:58:57;;;;;;;0.10;0.10;;;;;;;;;;5054244;28;20234;-72
2021/03/23 10:01:24;;;;;;;0.17;0.17;;;;;;;;;;5054271;28;20434;-73
2021/03/23 10:03:52;;;;;;;0.20;0.20;;;;;;;;;;5057130;28;20253;-73
2021/03/23 10:06:19;;;;;;;0.90;0.87;;;;;;;;;;5054473;28;20251;-74
2021/03/23 10:08:53;;;;;;;0.17;0.17;;;;;;;;;;5062833;28;20274;-74
2021/03/23 10:11:19;;;;;;;0.10;0.10;;;;;;;;;;5063099;28;20575;-73
2021/03/23 10:13:49;;;;;;;0.10;0.10;;;;;;;;;;5062388;28;20204;-73
2021/03/23 10:16:22;;;;;;;0.20;0.20;;;;;;;;;;5060282;28;20218;-74
2021/03/23 10:18:48;;;;;;;0.10;0.10;;;;;;;;;;5058612;28;20212;-74
2021/03/23 10:21:17;;;;;;;0.20;0.20;;;;;;;;;;5057545;28;20326;-74
2021/03/23 10:23:45;;;;;;;0.10;0.10;;;;;;;;;;5053046;28;20204;-74
2021/03/23 10:26:11;;;;;;;0.10;0.10;;;;;;;;;;5051359;28;20351;-74
2021/03/23 10:28:39;;;;;;;0.20;0.20;;;;;;;;;;5053192;28;20214;-74
2021/03/23 10:31:07;;;;;;;0.10;0.10;;;;;;;;;;5057391;28;20419;-74
2021/03/23 10:33:34;;;;;;;0.20;0.20;;;;;;;;;;5062763;28;20234;-73
2021/03/23 10:36:01;;;;;;;0.20;0.20;;;;;;;;;;5056373;28;20270;-74
2021/03/23 10:38:37;;;;;;;0.20;0.20;;;;;;;;;;5056189;28;20215;-73
2021/03/23 10:41:18;;;;;;;0.10;0.10;;;;;;;;;;5059932;28;20206;-72
2021/03/23 10:43:45;;;;;;;0.10;0.10;;;;;;;;;;5060511;28;20256;-72
2021/03/23 10:46:26;;;;;;;0.10;0.10;;;;;;;;;;5055099;28;20420;-74
2021/03/23 10:48:52;;;;;;;0.13;0.13;;;;;;;;;;5062436;28;20238;-75
2021/03/23 10:51:19;;;;;;;0.17;0.17;;;;;;;;;;5059822;28;20595;-74
2021/03/23 10:54:00;;;;;;;0.20;0.20;;;;;;;;;;5064309;28;20214;-73
2021/03/23 10:56:30;;;;;;;0.10;0.10;;;;;;;;;;5060476;28;20502;-74
2021/03/23 10:59:09;;;;;;;0.10;0.10;;;;;;;;;;5064332;28;20215;-74
2021/03/23 11:01:35;;;;;;;0.10;0.10;;;;;;;;;;5057840;28;20202;-74
2021/03/23 11:04:10;;;;;;;0.17;0.17;;;;;;;;;;5060810;28;20398;-73
2021/03/23 11:06:36;;;;;;;0.10;0.10;;;;;;;;;;5065532;28;20498;-73
2021/03/23 11:09:03;;;;;;;0.10;0.10;;;;;;;;;;5060455;28;20249;-74
2021/03/23 11:11:31;;;;;;;0.10;0.10;;;;;;;;;;5060771;28;20261;-73
2021/03/23 11:13:57;;;;;;;0.10;0.10;;;;;;;;;;5065425;28;20216;-73
2021/03/23 11:16:25;;;;;;;0.10;0.10;;;;;;;;;;5065399;28;20235;-73
2021/03/23 11:18:51;;;;;;;0.10;0.10;;;;;;;;;;5057924;28;20227;-73
2021/03/23 11:21:18;;;;;;;0.20;0.20;;;;;;;;;;5056984;28;20549;-73
2021/03/23 11:23:46;;;;;;;0.10;0.10;;;;;;;;;;5061620;28;20515;-74
2021/03/23 11:26:13;;;;;;;0.10;0.10;;;;;;;;;;5046943;28;20204;-74
2021/03/23 11:28:40;;;;;;;0.10;0.10;;;;;;;;;;5061952;28;20210;-73
2021/03/23 11:31:07;;;;;;;0.10;0.10;;;;;;;;;;5064817;28;20228;-74
2021/03/23 11:33:33;;;;;;;0.10;0.10;;;;;;;;;;5064595;28;20233;-73
2021/03/23 11:36:00;;;;;;;0.10;0.10;;;;;;;;;;5053967;28;20226;-73
2021/03/23 11:38:25;;;;;;;0.10;0.10;;;;;;;;;;5050138;28;20217;-73
2021/03/23 11:40:53;;;;;;;0.10;0.10;;;;;;;;;;5064243;28;20207;-74
2021/03/23 11:43:22;;;;;;;0.10;0.10;;;;;;;;;;5059780;28;20492;-75
2021/03/23 11:45:51;;;;;;;0.10;0.10;;;;;;;;;;5056474;28;20204;-74
2021/03/23 11:48:18;;;;;;;0.10;0.10;;;;;;;;;;5056456;28;20216;-73
2021/03/23 11:50:47;;;;;;;0.10;0.10;;;;;;;;;;5065069;28;20218;-74
2021/03/23 11:53:13;;;;;;;0.10;0.10;;;;;;;;;;5064720;28;20204;-74
2021/03/23 11:55:41;;;;;;;0.10;0.10;;;;;;;;;;5053098;28;20206;-72
2021/03/23 11:58:08;;;;;;;0.10;0.10;;;;;;;;;;5064582;28;20207;-74
2021/03/23 12:00:34;;;;;;;0.10;0.10;;;;;;;;;;5064830;28;20444;-73
2021/03/23 12:03:03;;;;;;;0.10;0.10;;;;;;;;;;5053801;28;20207;-73
2021/03/23 12:05:29;;;;;;;0.13;0.13;;;;;;;;;;5049042;28;20235;-73
2021/03/23 12:08:00;;;;;;;0.10;0.10;;;;;;;;;;5054979;28;20423;-74
2021/03/23 12:10:28;;;;;;;0.20;0.20;;;;;;;;;;5052560;28;20212;-73
2021/03/23 12:12:59;;;;;;;0.10;0.10;;;;;;;;;;5055420;28;20235;-72
2021/03/23 12:15:28;;;;;;;0.10;0.10;;;;;;;;;;5047552;28;20247;-72
2021/03/23 12:17:55;;;;;;;0.10;0.10;;;;;;;;;;5053077;28;20207;-72
2021/03/23 12:20:24;;;;;;;0.10;0.10;;;;;;;;;;5057487;28;20222;-72
2021/03/23 12:22:51;;;;;;;0.10;0.10;;;;;;;;;;5052969;28;20230;-74
2021/03/23 12:25:19;;;;;;;0.10;0.10;;;;;;;;;;5054800;28;20208;-72
2021/03/23 12:27:45;;;;;;;0.17;0.17;;;;;;;;;;5051854;28;20207;-72
2021/03/23 12:30:12;;;;;;;0.10;0.10;;;;;;;;;;5054356;28;20211;-71
2021/03/23 12:32:39;;;;;;;0.10;0.10;;;;;;;;;;5048409;28;20279;-72
2021/03/23 12:35:09;;;;;;;0.10;0.10;;;;;;;;;;5059122;28;20215;-73
2021/03/23 12:37:36;;;;;;;0.10;0.10;;;;;;;;;;5051737;28;20238;-72
2021/03/23 12:40:04;;;;;;;0.10;0.10;;;;;;;;;;5049596;28;20266;-73
2021/03/23 12:42:29;;;;;;;0.10;0.10;;;;;;;;;;5047652;28;20245;-73
2021/03/23 12:44:55;;;;;;;0.10;0.10;;;;;;;;;;5053832;28;20212;-73
2021/03/23 12:47:21;;;;;;;0.10;0.10;;;;;;;;;;5054979;28;20200;-74
2021/03/23 12:49:47;;;;;;;0.10;0.10;;;;;;;;;;5056013;28;20496;-72
2021/03/23 12:52:15;;;;;;;0.10;0.10;;;;;;;;;;5047886;28;20537;-71
2021/03/23 12:54:42;;;;;;;0.10;0.10;;;;;;;;;;5051545;28;20245;-72
2021/03/23 12:57:13;;;;;;;0.10;0.10;;;;;;;;;;5057870;28;20242;-73
2021/03/23 12:59:39;;;;;;;0.20;0.20;;;;;;;;;;5046121;28;20196;-72
2021/03/23 13:02:05;;;;;;;0.10;0.10;;;;;;;;;;5051947;28;20272;-72
2021/03/23 13:04:31;;;;;;;0.20;0.20;;;;;;;;;;5047189;28;20288;-72
2021/03/23 13:06:57;;;;;;;0.10;0.10;;;;;;;;;;5047900;28;20215;-72
2021/03/23 13:09:24;;;;;;;0.20;0.20;;;;;;;;;;5053359;28;20218;-72
2021/03/23 13:11:52;;;;;;;0.10;0.10;;;;;;;;;;5055639;28;20235;-77
2021/03/23 13:14:22;;;;;;;0.20;0.20;;;;;;;;;;5055724;28;20257;-77
2021/03/23 13:16:48;;;;;;;0.10;0.10;;;;;;;;;;5056909;28;20299;-75
2021/03/23 13:19:14;;;;;;;0.20;0.20;;;;;;;;;;5055947;28;20205;-75
2021/03/23 13:21:43;;;;;;;0.10;0.10;;;;;;;;;;5056655;28;20202;-73
2021/03/23 13:24:22;;;;;;;0.10;0.10;;;;;;;;;;5051060;28;20203;-76
2021/03/23 13:26:47;;;;;;;0.10;0.10;;;;;;;;;;5054332;28;20204;-74
2021/03/23 13:29:14;;;;;;;0.17;0.17;;;;;;;;;;5055712;28;20210;-75
2021/03/23 13:31:41;;;;;;;0.20;0.20;;;;;;;;;;5059400;28;20293;-72
2021/03/23 13:34:13;;;;;;;0.10;0.10;;;;;;;;;;5056550;28;20203;-75
2021/03/23 13:36:42;;;;;;;0.10;0.10;;;;;;;;;;5054015;28;20267;-74
2021/03/23 13:39:11;;;;;;;0.10;0.10;;;;;;;;;;5052203;28;20463;-72
2021/03/23 13:41:37;;;;;;;0.10;0.10;;;;;;;;;;5050608;28;20207;-71
2021/03/23 13:44:07;;;;;;;0.10;0.10;;;;;;;;;;5047988;28;20407;-74
2021/03/23 13:46:38;;;;;;;0.10;0.10;;;;;;;;;;5052090;28;20236;-73
2021/03/23 13:49:04;;;;;;;0.10;0.10;;;;;;;;;;5052327;28;20204;-74
2021/03/23 13:51:32;;;;;;;0.10;0.10;;;;;;;;;;5057396;28;20551;-73
2021/03/23 13:53:58;;;;;;;0.10;0.10;;;;;;;;;;5056232;28;20209;-73
2021/03/23 13:56:24;;;;;;;0.20;0.20;;;;;;;;;;5055468;28;20242;-72
2021/03/23 13:58:50;;;;;;;0.17;0.17;;;;;;;;;;5052097;28;20200;-73
2021/03/23 14:01:16;;;;;;;0.20;0.20;;;;;;;;;;5059696;28;20390;-74
2021/03/23 14:03:43;;;;;;;0.10;0.10;;;;;;;;;;5054078;28;20226;-74
2021/03/23 14:06:13;;;;;;;0.10;0.10;;;;;;;;;;5048382;28;20250;-72
2021/03/23 14:08:41;;;;;;;0.20;0.20;;;;;;;;;;5050266;28;20511;-74
2021/03/23 14:11:09;;;;;;;0.20;0.20;;;;;;;;;;5048101;28;20275;-74
2021/03/23 14:13:36;;;;;;;0.20;0.20;;;;;;;;;;5058340;28;20213;-73
2021/03/23 14:16:02;;;;;;;0.10;0.10;;;;;;;;;;5051074;28;20208;-74
2021/03/23 14:18:28;;;;;;;0.20;0.20;;;;;;;;;;5056337;28;20213;-74
2021/03/23 14:20:56;;;;;;;0.13;0.13;;;;;;;;;;5058905;28;20236;-73
2021/03/23 14:23:27;;;;;;;0.10;0.10;;;;;;;;;;5054484;28;20246;-73
2021/03/23 14:25:53;;;;;;;0.20;0.20;;;;;;;;;;5062501;28;20227;-73
2021/03/23 14:28:21;;;;;;;0.10;0.10;;;;;;;;;;5052756;28;20256;-72
2021/03/23 14:30:47;;;;;;;0.10;0.10;;;;;;;;;;5054859;28;20216;-73
2021/03/23 14:33:13;;;;;;;0.10;0.10;;;;;;;;;;5057078;28;20255;-74
2021/03/23 14:35:40;;;;;;;0.40;0.40;;;;;;;;;;5057919;28;20207;-73
2021/03/23 14:38:11;;;;;;;0.10;0.10;;;;;;;;;;5061026;28;20199;-73
2021/03/23 14:40:38;;;;;;;0.10;0.10;;;;;;;;;;5054166;28;20196;-73
2021/03/23 14:43:06;;;;;;;0.10;0.10;;;;;;;;;;5054079;28;20228;-72
2021/03/23 14:45:32;;;;;;;0.10;0.10;;;;;;;;;;5061610;28;20442;-74
2021/03/23 14:47:59;;;;;;;0.13;0.13;;;;;;;;;;5056193;28;20215;-74
2021/03/23 14:50:25;;;;;;;0.10;0.10;;;;;;;;;;5058512;28;20257;-73
2021/03/23 14:52:53;;;;;;;0.10;0.10;;;;;;;;;;5058922;28;20269;-74